Time;durP1;ratioP1;P1;durP2;ratioP2;P2;SDS_P1;SDS_P2;PMS_P1;PMS_P2;Temp;Humidity;BMP_temperature;BMP_pressure;BME280_temperature;BME280_humidity;BME280_pressure;Samples;Min_cycle;Max_cycle;Signal;HPM_P1;HPM_P2
2021/06/11 00:01:39;;;;;;;;;6.67;6.67;;;;;27.11;43.33;101583.16;5081617;27;45258;-62
2021/06/11 00:04:04;;;;;;;;;6.33;5.33;;;;;27.10;43.55;101584.09;5083000;27;45334;-62
2021/06/11 00:06:31;;;;;;;;;7.00;6.33;;;;;27.10;44.08;101587.59;5071424;27;45412;-63
2021/06/11 00:08:57;;;;;;;;;6.00;6.00;;;;;27.10;43.13;101584.94;5062296;28;45370;-63
2021/06/11 00:11:22;;;;;;;;;5.33;5.33;;;;;27.10;43.75;101586.75;5062090;28;45404;-62
2021/06/11 00:13:47;;;;;;;;;5.67;5.67;;;;;27.08;43.31;101585.03;5062388;28;45327;-63
2021/06/11 00:16:13;;;;;;;;;6.00;4.33;;;;;27.08;43.74;101592.16;5060927;28;68852;-63
2021/06/11 00:18:38;;;;;;;;;5.00;5.00;;;;;27.08;43.39;101586.84;5061871;28;45416;-63
2021/06/11 00:21:03;;;;;;;;;4.00;4.00;;;;;27.07;43.78;101588.66;5074014;28;53476;-63
2021/06/11 00:23:29;;;;;;;;;5.33;5.00;;;;;27.08;43.51;101592.16;5062268;28;45377;-63
2021/06/11 00:25:54;;;;;;;;;6.67;5.67;;;;;27.07;43.66;101588.66;5060964;28;59423;-63
2021/06/11 00:28:20;;;;;;;;;6.00;4.67;;;;;27.07;43.61;101590.47;5061582;28;49404;-63
2021/06/11 00:30:45;;;;;;;;;4.33;4.33;;;;;27.07;43.44;101586.00;5061510;28;45381;-63
2021/06/11 00:33:11;;;;;;;;;6.00;6.00;;;;;27.06;43.32;101589.59;5060569;28;45343;-63
2021/06/11 00:35:36;;;;;;;;;5.33;5.00;;;;;27.05;43.90;101590.56;5060968;28;46121;-63
2021/06/11 00:38:03;;;;;;;;;4.00;4.00;;;;;27.05;43.89;101593.22;5069416;28;45262;-64
2021/06/11 00:40:29;;;;;;;;;7.00;7.00;;;;;27.05;43.75;101584.38;5061632;28;45246;-64
2021/06/11 00:42:54;;;;;;;;;5.00;5.00;;;;;27.05;43.55;101593.22;5061899;28;45242;-63
2021/06/11 00:45:20;;;;;;;;;7.00;5.33;;;;;27.05;43.18;101595.88;5060881;28;65722;-66
2021/06/11 00:47:46;;;;;;;;;6.67;6.67;;;;;27.05;43.82;101589.72;5059571;28;51489;-64
2021/06/11 00:50:13;;;;;;;;;4.33;4.33;;;;;27.04;43.24;101591.50;5060370;28;45350;-63
2021/06/11 00:52:40;;;;;;;;;5.00;5.00;;;;;27.04;43.29;101580.84;5071640;27;45364;-63
2021/06/11 00:55:06;;;;;;;;;4.67;4.33;;;;;27.04;43.34;101587.97;5060726;28;46741;-63
2021/06/11 00:57:32;;;;;;;;;6.00;3.33;;;;;27.03;43.88;101581.78;5069718;28;45342;-63
2021/06/11 00:59:57;;;;;;;;;5.00;4.33;;;;;27.02;43.69;101582.72;5078033;28;45605;-63
2021/06/11 01:02:23;;;;;;;;;5.67;5.67;;;;;27.03;43.51;101589.78;5061721;28;45330;-63
2021/06/11 01:04:49;;;;;;;;;2.33;2.33;;;;;27.03;43.33;101587.09;5061071;28;45299;-69
2021/06/11 01:07:15;;;;;;;;;4.00;4.00;;;;;27.03;43.34;101587.09;5060035;28;45376;-63
2021/06/11 01:09:41;;;;;;;;;4.67;4.67;;;;;27.03;43.13;101587.09;5061253;28;45642;-63
2021/06/11 01:12:08;;;;;;;;;4.67;4.67;;;;;27.02;43.72;101589.88;5060357;28;45428;-63
2021/06/11 01:14:34;;;;;;;;;6.00;4.00;;;;;27.02;43.51;101582.72;5061190;28;45364;-63
2021/06/11 01:17:01;;;;;;;;;3.33;3.33;;;;;27.01;43.36;101582.84;5049512;28;45327;-63
2021/06/11 01:19:31;;;;;;;;;5.33;5.33;;;;;27.02;43.75;101584.56;5064520;28;45398;-63
2021/06/11 01:22:07;;;;;;;;;3.67;3.67;;;;;27.02;43.72;101576.56;5065223;28;45402;-63
2021/06/11 01:24:34;;;;;;;;;5.33;5.33;;;;;27.00;43.74;101576.63;5063108;28;46127;-64
2021/06/11 01:27:02;;;;;;;;;5.00;5.00;;;;;27.00;43.53;101584.63;5063230;28;45395;-64
2021/06/11 01:29:29;;;;;;;;;4.00;3.67;;;;;27.00;43.78;101581.13;5063228;28;45508;-63
2021/06/11 01:32:00;;;;;;;;;5.00;4.00;;;;;26.99;43.31;101579.41;5063453;28;45413;-63
2021/06/11 01:34:30;;;;;;;;;4.67;4.67;;;;;26.98;43.13;101572.34;5064150;28;46144;-63
2021/06/11 01:37:13;;;;;;;;;5.67;4.00;;;;;26.98;43.79;101583.88;5069392;28;45514;-63
2021/06/11 01:39:40;;;;;;;;;3.00;3.00;;;;;26.97;43.68;101579.50;5083708;28;45448;-63
2021/06/11 01:42:06;;;;;;;;;6.00;5.00;;;;;26.97;43.15;101581.28;5083715;28;45276;-63
2021/06/11 01:44:32;;;;;;;;;4.33;4.33;;;;;26.97;43.36;101571.50;5083259;28;47678;-66
2021/06/11 01:47:00;;;;;;;;;4.00;4.00;;;;;26.97;43.39;101573.28;5083126;28;45361;-63
2021/06/11 01:49:26;;;;;;;;;4.00;4.00;;;;;26.96;43.20;101571.56;5083439;28;45333;-63
2021/06/11 01:51:54;;;;;;;;;5.00;4.33;;;;;26.96;43.25;101563.59;5069108;27;45574;-63
2021/06/11 01:54:21;;;;;;;;;3.00;3.00;;;;;26.96;43.39;101566.25;5083200;28;45365;-63
2021/06/11 01:56:47;;;;;;;;;3.00;3.00;;;;;26.96;43.82;101559.13;5083129;28;45373;-63
2021/06/11 01:59:13;;;;;;;;;3.00;3.00;;;;;26.95;43.45;101568.06;5082932;28;50233;-63
2021/06/11 02:01:39;;;;;;;;;3.00;3.00;;;;;26.95;43.24;101564.53;5083389;28;45395;-63
2021/06/11 02:04:05;;;;;;;;;5.67;5.00;;;;;26.95;43.07;101562.75;5082201;28;67105;-63
2021/06/11 02:06:31;;;;;;;;;4.00;4.00;;;;;26.95;43.81;101554.75;5073199;28;45342;-63
2021/06/11 02:08:57;;;;;;;;;3.00;3.00;;;;;26.95;43.31;101565.41;5046047;28;45434;-63
2021/06/11 02:11:23;;;;;;;;;5.00;3.00;;;;;26.95;43.36;101557.41;5063992;28;45288;-63
2021/06/11 02:13:52;;;;;;;;;3.33;3.33;;;;;26.95;43.82;101557.41;5063681;28;45394;-63
2021/06/11 02:16:19;;;;;;;;;4.00;4.00;;;;;26.93;43.67;101554.81;5063676;28;45504;-63
2021/06/11 02:18:45;;;;;;;;;4.00;4.00;;;;;26.95;43.07;101559.22;5064033;28;45433;-63
2021/06/11 02:21:12;;;;;;;;;4.00;4.00;;;;;26.95;43.35;101551.22;5063761;28;45473;-64
2021/06/11 02:23:38;;;;;;;;;4.00;4.00;;;;;26.94;43.45;101555.69;5062313;28;46382;-64
2021/06/11 02:26:05;;;;;;;;;5.00;5.00;;;;;26.93;43.44;101548.66;5062132;28;45337;-61
2021/06/11 02:28:30;;;;;;;;;4.00;3.33;;;;;26.92;43.70;101550.44;5063591;28;45219;-63
2021/06/11 02:30:59;;;;;;;;;2.00;2.00;;;;;26.92;43.56;101553.09;5063397;28;45165;-64
2021/06/11 02:33:25;;;;;;;;;3.33;3.33;;;;;26.93;43.46;101554.81;5063349;28;46358;-64
2021/06/11 02:35:50;;;;;;;;;4.00;4.00;;;;;26.92;43.65;101552.25;5063523;28;45359;-63
2021/06/11 02:38:16;;;;;;;;;3.00;3.00;;;;;26.93;43.62;101551.31;5071821;28;45495;-63
2021/06/11 02:40:41;;;;;;;;;5.00;3.00;;;;;26.92;43.40;101550.44;5063609;28;45267;-63
2021/06/11 02:43:10;;;;;;;;;2.00;2.00;;;;;26.91;43.70;101546.09;5061532;28;63880;-63
2021/06/11 02:45:44;;;;;;;;;3.00;3.00;;;;;26.92;43.35;101549.59;5061899;28;45308;-62
2021/06/11 02:48:29;;;;;;;;;3.00;3.00;;;;;26.92;43.27;101550.44;5061999;28;45263;-64
2021/06/11 02:51:11;;;;;;;;;3.00;3.00;;;;;26.91;43.09;101542.56;5070718;28;45184;-63
2021/06/11 02:53:37;;;;;;;;;3.67;3.67;;;;;26.91;43.06;101539.91;5082208;27;46160;-63
2021/06/11 02:56:14;;;;;;;;;4.00;3.00;;;;;26.91;43.45;101538.09;5054275;28;45243;-64
2021/06/11 02:58:44;;;;;;;;;3.33;3.00;;;;;26.92;43.17;101541.63;5061915;28;45515;-64
2021/06/11 03:01:10;;;;;;;;;2.00;2.00;;;;;26.91;43.83;101537.22;5076294;28;45356;-64
2021/06/11 03:03:38;;;;;;;;;2.33;2.33;;;;;26.91;43.55;101538.09;5081730;28;47100;-64
2021/06/11 03:06:04;;;;;;;;;3.67;3.67;;;;;26.90;43.58;101538.19;5058709;28;46681;-63
2021/06/11 03:08:32;;;;;;;;;3.00;3.00;;;;;26.90;43.14;101532.84;5063220;27;45215;-63
2021/06/11 03:11:06;;;;;;;;;2.00;2.00;;;;;26.90;43.35;101538.19;5055555;28;45418;-63
2021/06/11 03:13:33;;;;;;;;;3.00;3.00;;;;;26.89;42.99;101533.78;5061658;28;45350;-63
2021/06/11 03:15:59;;;;;;;;;3.00;3.00;;;;;26.88;43.09;101540.06;5061520;28;45389;-63
2021/06/11 03:18:29;;;;;;;;;4.00;3.00;;;;;26.89;43.39;101531.13;5062873;28;45380;-64
2021/06/11 03:20:57;;;;;;;;;3.33;3.00;;;;;26.90;43.58;101532.84;5062933;28;45254;-64
2021/06/11 03:23:30;;;;;;;;;1.67;1.00;;;;;26.89;43.28;101532.00;5061396;28;45400;-63
2021/06/11 03:26:00;;;;;;;;;2.33;2.33;;;;;26.89;43.57;101534.66;5062648;28;45318;-63
2021/06/11 03:28:43;;;;;;;;;3.33;3.33;;;;;26.90;43.73;101532.84;5062805;28;45426;-63
2021/06/11 03:31:13;;;;;;;;;2.67;2.67;;;;;26.89;43.40;101536.47;5061313;28;45369;-64
2021/06/11 03:33:39;;;;;;;;;4.00;2.00;;;;;26.87;43.58;101528.56;5062281;28;46261;-64
2021/06/11 03:36:20;;;;;;;;;2.33;2.33;;;;;26.88;43.75;101532.06;5061737;28;62341;-63
2021/06/11 03:38:50;;;;;;;;;2.00;2.00;;;;;26.89;43.90;101536.47;5078147;28;45400;-64
2021/06/11 03:41:17;;;;;;;;;2.67;2.67;;;;;26.87;43.29;101533.91;5066605;28;45393;-64
2021/06/11 03:43:43;;;;;;;;;3.67;3.00;;;;;26.87;43.58;101533.91;5060986;28;46192;-64
2021/06/11 03:46:11;;;;;;;;;2.33;2.33;;;;;26.87;43.50;101533.03;5061378;28;45746;-64
2021/06/11 03:48:37;;;;;;;;;3.00;3.00;;;;;26.86;43.03;101542.84;5062309;28;45453;-64
2021/06/11 03:51:02;;;;;;;;;2.00;2.00;;;;;26.86;43.15;101544.63;5060716;28;56247;-65
2021/06/11 03:53:29;;;;;;;;;2.33;2.33;;;;;26.86;43.55;101537.50;5074459;27;45247;-64
2021/06/11 03:56:01;;;;;;;;;2.00;2.00;;;;;26.86;43.57;101536.63;5061069;28;45274;-64
2021/06/11 03:58:36;;;;;;;;;3.00;2.00;;;;;26.86;43.03;101541.97;5062066;28;45396;-64
2021/06/11 04:01:03;;;;;;;;;3.00;3.00;;;;;26.85;43.63;101541.13;5061268;28;45393;-64
2021/06/11 04:03:29;;;;;;;;;3.00;3.00;;;;;26.86;43.35;101539.28;5060403;28;46329;-63
2021/06/11 04:06:05;;;;;;;;;2.00;2.00;;;;;26.85;43.34;101535.78;5061611;28;48653;-64
2021/06/11 04:08:33;;;;;;;;;2.67;2.67;;;;;26.85;43.23;101545.59;5068957;28;45279;-64
2021/06/11 04:10:59;;;;;;;;;2.00;2.00;;;;;26.86;43.44;101541.97;5081167;28;45563;-63
2021/06/11 04:13:38;;;;;;;;;4.00;2.00;;;;;26.86;43.55;101544.63;5081041;28;47026;-62
2021/06/11 04:16:06;;;;;;;;;2.00;2.00;;;;;26.86;42.89;101553.47;5081246;28;45458;-63
2021/06/11 04:18:32;;;;;;;;;3.33;3.00;;;;;26.86;43.53;101545.50;5064396;28;45349;-63
2021/06/11 04:20:59;;;;;;;;;1.00;1.00;;;;;26.86;43.15;101542.84;5077784;28;45505;-63
2021/06/11 04:23:27;;;;;;;;;2.00;2.00;;;;;26.86;42.87;101547.28;5060615;28;45362;-63
2021/06/11 04:25:56;;;;;;;;;3.00;3.00;;;;;26.87;43.18;101541.00;5060713;28;45319;-63
2021/06/11 04:28:26;;;;;;;;;3.33;3.33;;;;;26.87;43.00;101549.88;5043963;28;45473;-63
2021/06/11 04:30:53;;;;;;;;;2.67;2.67;;;;;26.87;43.64;101543.69;5060437;28;45345;-64
2021/06/11 04:33:26;;;;;;;;;2.00;2.00;;;;;26.87;42.92;101544.56;5061564;28;45259;-63
2021/06/11 04:35:52;;;;;;;;;2.00;2.00;;;;;26.87;43.53;101544.56;5079666;28;45276;-64
2021/06/11 04:38:19;;;;;;;;;3.00;3.00;;;;;26.88;42.92;101548.94;5069913;27;45493;-63
2021/06/11 04:40:44;;;;;;;;;1.67;1.67;;;;;26.88;43.25;101556.03;5061851;28;45305;-64
2021/06/11 04:43:11;;;;;;;;;2.67;1.33;;;;;26.89;43.41;101553.31;5061657;28;45302;-64
2021/06/11 04:45:36;;;;;;;;;2.00;2.00;;;;;26.90;43.29;101548.81;5061753;28;45422;-61
2021/06/11 04:48:03;;;;;;;;;2.33;2.33;;;;;26.89;43.41;101553.31;5071231;28;45474;-61
2021/06/11 04:50:28;;;;;;;;;2.00;2.00;;;;;26.89;43.21;101553.31;5069480;28;45319;-59
2021/06/11 04:52:54;;;;;;;;;2.00;2.00;;;;;26.91;43.07;101556.75;5073030;27;47111;-58
2021/06/11 04:55:19;;;;;;;;;2.00;2.00;;;;;26.92;43.61;101552.25;5071505;27;45336;-58
2021/06/11 04:57:45;;;;;;;;;2.00;2.00;;;;;26.92;43.88;101549.59;5073047;28;45323;-58
2021/06/11 05:00:11;;;;;;;;;2.00;2.00;;;;;26.92;42.91;101546.94;5078473;27;45638;-58
2021/06/11 05:02:36;;;;;;;;;2.00;2.00;;;;;26.92;43.01;101547.78;5079076;27;46262;-58
2021/06/11 05:05:02;;;;;;;;;2.00;2.00;;;;;26.93;43.35;101553.97;5070549;28;45383;-58
2021/06/11 05:07:28;;;;;;;;;2.00;2.00;;;;;26.93;43.66;101546.00;5077045;27;45233;-60
2021/06/11 05:09:53;;;;;;;;;2.00;2.00;;;;;26.94;43.61;101558.38;5080514;28;55849;-58
2021/06/11 05:12:19;;;;;;;;;2.33;2.33;;;;;26.94;43.23;101555.69;5069827;28;46091;-61
2021/06/11 05:14:44;;;;;;;;;4.33;3.00;;;;;26.95;43.72;101560.09;5078673;28;45349;-64
2021/06/11 05:17:10;;;;;;;;;1.33;1.33;;;;;26.97;43.04;101562.66;5070378;28;45502;-65
2021/06/11 05:19:35;;;;;;;;;1.67;1.67;;;;;26.97;42.98;101562.66;5071135;28;45223;-61
2021/06/11 05:22:01;;;;;;;;;2.67;2.67;;;;;26.98;43.11;101567.91;5073217;27;59337;-62
2021/06/11 05:24:26;;;;;;;;;3.00;3.00;;;;;26.99;43.62;101568.75;5064615;28;45406;-62
2021/06/11 05:26:52;;;;;;;;;2.00;2.00;;;;;26.98;43.10;101565.22;5071073;28;45393;-62
2021/06/11 05:29:17;;;;;;;;;3.33;2.00;;;;;26.99;43.00;101571.41;5069446;28;45437;-63
2021/06/11 05:31:43;;;;;;;;;3.00;3.00;;;;;26.99;43.00;101574.94;5070124;27;72166;-63
2021/06/11 05:34:09;;;;;;;;;3.00;3.00;;;;;26.99;43.51;101569.63;5066733;27;45863;-63
2021/06/11 05:36:34;;;;;;;;;2.00;2.00;;;;;27.00;43.36;101576.63;5075682;28;45526;-63
2021/06/11 05:39:00;;;;;;;;;3.00;3.00;;;;;27.02;43.73;101587.22;5066953;27;45537;-64
2021/06/11 05:41:25;;;;;;;;;3.67;2.67;;;;;27.00;43.85;101581.97;5049531;28;58212;-63
2021/06/11 05:43:51;;;;;;;;;3.00;2.00;;;;;27.01;43.56;101581.00;5068205;28;59553;-63
2021/06/11 05:46:17;;;;;;;;;2.00;2.00;;;;;27.02;43.12;101581.88;5069922;28;45554;-63
2021/06/11 05:48:43;;;;;;;;;3.67;3.67;;;;;27.03;44.01;101591.59;5067416;28;45861;-55
2021/06/11 05:51:09;;;;;;;;;3.00;3.00;;;;;27.03;43.85;101587.09;5066877;28;46276;-64
2021/06/11 05:53:35;;;;;;;;;2.00;2.00;;;;;27.03;44.09;101592.44;5061926;27;45561;-59
2021/06/11 05:56:01;;;;;;;;;3.67;3.67;;;;;27.04;43.62;101594.16;5067244;27;45555;-61
2021/06/11 05:58:27;;;;;;;;;4.00;3.33;;;;;27.05;43.76;101590.56;5069455;27;45560;-61
2021/06/11 06:00:52;;;;;;;;;4.00;4.00;;;;;27.06;43.93;101589.59;5071531;28;45911;-60
2021/06/11 06:03:17;;;;;;;;;2.67;2.33;;;;;27.07;43.42;101588.66;5067172;28;62463;-61
2021/06/11 06:05:43;;;;;;;;;3.00;3.00;;;;;27.08;43.87;101593.03;5069635;27;45498;-61
2021/06/11 06:08:08;;;;;;;;;2.00;2.00;;;;;27.09;43.43;101593.88;5069651;28;45675;-61
2021/06/11 06:10:34;;;;;;;;;3.67;1.67;;;;;27.10;43.84;101592.94;5071084;27;46418;-62
2021/06/11 06:12:59;;;;;;;;;4.00;4.00;;;;;27.10;43.35;101595.59;5068765;27;55715;-62
2021/06/11 06:15:25;;;;;;;;;3.33;2.33;;;;;27.11;43.64;101594.66;5069965;27;45484;-62
2021/06/11 06:17:50;;;;;;;;;4.33;3.33;;;;;27.12;43.96;101596.38;5070901;28;46880;-63
2021/06/11 06:20:16;;;;;;;;;4.00;2.00;;;;;27.11;43.98;101592.00;5067516;28;63341;-62
2021/06/11 06:22:42;;;;;;;;;2.00;2.00;;;;;27.12;43.76;101601.69;5065619;28;45511;-61
2021/06/11 06:25:08;;;;;;;;;2.00;2.00;;;;;27.13;43.64;101606.09;5079968;28;45200;-61
2021/06/11 06:27:38;;;;;;;;;2.00;2.00;;;;;27.13;43.57;101597.25;5084104;27;45521;-61
2021/06/11 06:30:05;;;;;;;;;3.00;2.00;;;;;27.12;43.46;101604.38;5082990;28;45403;-62
2021/06/11 06:32:30;;;;;;;;;5.00;3.33;;;;;27.14;43.34;101609.63;5081343;27;45455;-59
2021/06/11 06:34:57;;;;;;;;;3.67;2.33;;;;;27.13;43.40;101608.75;5074858;27;45427;-63
2021/06/11 06:37:23;;;;;;;;;2.67;2.67;;;;;27.13;43.30;101608.75;5069518;27;45624;-65
2021/06/11 06:39:49;;;;;;;;;4.00;4.00;;;;;27.13;43.11;101610.56;5062375;28;45356;-64
2021/06/11 06:42:15;;;;;;;;;4.00;4.00;;;;;27.14;43.62;101609.63;5064162;28;45464;-68
2021/06/11 06:44:40;;;;;;;;;2.67;2.67;;;;;27.15;43.31;101611.34;5080752;27;45640;-59
2021/06/11 06:47:06;;;;;;;;;3.00;2.00;;;;;27.14;43.31;101609.63;5061417;28;45488;-58
2021/06/11 06:49:34;;;;;;;;;3.00;3.00;;;;;27.14;43.17;101609.63;5063729;28;60641;-58
2021/06/11 06:52:00;;;;;;;;;1.67;1.67;;;;;27.14;43.72;101612.28;5062567;28;45313;-58
2021/06/11 06:54:26;;;;;;;;;1.00;1.00;;;;;27.14;43.61;101612.28;5062650;28;45303;-58
2021/06/11 06:56:51;;;;;;;;;3.00;3.00;;;;;27.13;43.34;101611.41;5063036;28;45272;-59
2021/06/11 06:59:17;;;;;;;;;4.00;4.00;;;;;27.13;43.12;101619.41;5062292;28;51333;-59
2021/06/11 07:01:42;;;;;;;;;4.67;3.00;;;;;27.13;43.51;101606.09;5062587;28;45307;-58
2021/06/11 07:04:07;;;;;;;;;3.33;3.00;;;;;27.13;43.32;101611.41;5062228;28;52801;-59
2021/06/11 07:06:33;;;;;;;;;5.00;3.00;;;;;27.13;43.23;101614.06;5062290;28;50424;-58
2021/06/11 07:08:58;;;;;;;;;2.67;2.67;;;;;27.13;42.95;101623.88;5062617;28;47177;-57
2021/06/11 07:11:25;;;;;;;;;4.67;3.00;;;;;27.12;43.52;101616.84;5077960;28;45750;-57
2021/06/11 07:13:51;;;;;;;;;4.00;4.00;;;;;27.12;43.21;101614.19;5080053;28;45440;-57
2021/06/11 07:16:16;;;;;;;;;2.00;2.00;;;;;27.10;43.77;101614.25;5070552;27;45317;-58
2021/06/11 07:18:42;;;;;;;;;3.00;3.00;;;;;27.12;43.29;101612.34;5062280;28;45251;-58
2021/06/11 07:21:07;;;;;;;;;3.33;3.33;;;;;27.11;42.81;101615.97;5062348;28;45454;-58
2021/06/11 07:23:34;;;;;;;;;2.67;2.00;;;;;27.13;43.52;101618.56;5062823;28;45509;-59
2021/06/11 07:26:02;;;;;;;;;2.00;2.00;;;;;27.12;43.47;101611.50;5061706;28;45439;-58
2021/06/11 07:28:28;;;;;;;;;3.00;2.67;;;;;27.11;42.88;101617.78;5060982;28;45755;-60
2021/06/11 07:30:54;;;;;;;;;3.67;2.00;;;;;27.12;43.43;101627.50;5060730;28;45440;-57
2021/06/11 07:33:20;;;;;;;;;5.00;3.33;;;;;27.11;43.30;101621.28;5063921;27;45428;-58
2021/06/11 07:35:45;;;;;;;;;4.00;4.00;;;;;27.11;43.39;101615.13;5081683;28;45471;-58
2021/06/11 07:38:11;;;;;;;;;3.67;3.00;;;;;27.12;43.31;101619.50;5066662;28;46086;-58
2021/06/11 07:40:36;;;;;;;;;3.00;3.00;;;;;27.11;43.36;101615.97;5078441;27;45258;-57
2021/06/11 07:43:03;;;;;;;;;3.00;3.00;;;;;27.10;43.26;101616.91;5081374;28;45277;-57
2021/06/11 07:45:29;;;;;;;;;6.00;4.00;;;;;27.10;43.38;101614.25;5082961;27;45546;-57
2021/06/11 07:47:55;;;;;;;;;3.00;3.00;;;;;27.10;42.81;101616.91;5081996;27;45416;-58
2021/06/11 07:50:20;;;;;;;;;4.00;4.00;;;;;27.11;43.42;101620.44;5082450;27;45376;-58
2021/06/11 07:52:47;;;;;;;;;3.67;3.67;;;;;27.11;42.96;101617.78;5062543;28;45319;-58
2021/06/11 07:55:16;;;;;;;;;3.00;3.00;;;;;27.10;42.89;101624.06;5060609;28;45722;-58
2021/06/11 07:57:42;;;;;;;;;4.00;3.00;;;;;27.10;42.89;101624.91;5060480;28;46154;-58
2021/06/11 08:00:09;;;;;;;;;3.33;3.00;;;;;27.11;42.72;101620.44;5061662;28;45318;-58
2021/06/11 08:02:34;;;;;;;;;3.00;3.00;;;;;27.11;43.27;101620.44;5061740;28;45576;-58
2021/06/11 08:04:59;;;;;;;;;3.00;3.00;;;;;27.11;43.27;101631.94;5062268;28;45269;-58
2021/06/11 08:07:31;;;;;;;;;3.00;3.00;;;;;27.10;42.93;101632.91;5077840;28;64550;-58
2021/06/11 08:09:59;;;;;;;;;3.00;3.00;;;;;27.11;42.84;101629.28;5081992;27;45437;-59
2021/06/11 08:12:29;;;;;;;;;4.00;3.00;;;;;27.11;43.03;101629.28;5081949;27;45342;-58
2021/06/11 08:14:54;;;;;;;;;2.00;2.00;;;;;27.11;43.35;101629.28;5081226;28;45510;-61
2021/06/11 08:17:19;;;;;;;;;3.00;3.00;;;;;27.11;43.20;101631.94;5081771;27;45325;-58
2021/06/11 08:19:45;;;;;;;;;2.67;2.33;;;;;27.11;42.83;101628.44;5081604;27;45317;-58
2021/06/11 08:22:10;;;;;;;;;5.67;4.33;;;;;27.11;43.36;101631.94;5082081;27;45297;-58
2021/06/11 08:24:36;;;;;;;;;4.33;4.00;;;;;27.12;43.31;101633.66;5070188;27;45310;-58
2021/06/11 08:27:01;;;;;;;;;2.00;2.00;;;;;27.12;43.29;101638.16;5039869;28;48429;-58
2021/06/11 08:29:27;;;;;;;;;1.00;1.00;;;;;27.13;42.83;101639.88;5061344;28;45231;-58
2021/06/11 08:31:53;;;;;;;;;4.33;3.00;;;;;27.13;42.89;101643.38;5061060;28;45331;-58
2021/06/11 08:34:19;;;;;;;;;5.00;3.00;;;;;27.13;42.61;101637.22;5070887;28;55038;-59
2021/06/11 08:36:44;;;;;;;;;4.00;4.00;;;;;27.13;42.75;101643.38;5078859;27;46072;-58
2021/06/11 08:39:10;;;;;;;;;2.67;2.67;;;;;27.14;43.15;101645.09;5060307;28;45290;-59
2021/06/11 08:41:36;;;;;;;;;2.00;2.00;;;;;27.15;42.71;101645.97;5061616;28;45568;-58
2021/06/11 08:44:02;;;;;;;;;3.00;3.00;;;;;27.15;42.61;101637.97;5061745;28;45377;-59
2021/06/11 08:46:27;;;;;;;;;3.00;3.00;;;;;27.14;42.70;101642.44;5061244;28;45658;-57
2021/06/11 08:48:53;;;;;;;;;3.00;3.00;;;;;27.15;43.18;101643.31;5061138;28;45251;-58
2021/06/11 08:51:19;;;;;;;;;1.67;1.67;;;;;27.15;43.24;101643.31;5061152;28;45311;-57
2021/06/11 08:53:46;;;;;;;;;3.00;3.00;;;;;27.16;43.30;101645.00;5043605;28;45611;-57
2021/06/11 08:56:11;;;;;;;;;3.00;3.00;;;;;27.15;42.80;101641.50;5072607;28;47015;-58
2021/06/11 08:58:40;;;;;;;;;3.00;3.00;;;;;27.17;42.62;101638.72;5065113;28;45693;-58
2021/06/11 09:01:07;;;;;;;;;2.00;2.00;;;;;27.17;42.97;101636.06;5060560;28;46496;-58
2021/06/11 09:03:52;;;;;;;;;4.00;3.00;;;;;27.17;42.33;101636.94;5065875;28;45397;-58
2021/06/11 09:06:18;;;;;;;;;2.00;2.00;;;;;27.17;42.51;101636.94;5059611;28;46209;-58
2021/06/11 09:08:53;;;;;;;;;2.00;2.00;;;;;27.19;42.63;101636.84;5059905;28;45254;-58
2021/06/11 09:11:24;;;;;;;;;2.00;2.00;;;;;27.19;42.78;101634.16;5060900;28;45654;-58
2021/06/11 09:13:54;;;;;;;;;3.00;3.00;;;;;27.19;43.08;101632.38;5061099;28;45501;-57
2021/06/11 09:16:26;;;;;;;;;2.67;2.67;;;;;27.20;43.13;101627.91;5059838;28;46344;-59
2021/06/11 09:19:05;;;;;;;;;2.00;2.00;;;;;27.19;42.58;101627.06;5060752;28;45376;-58
2021/06/11 09:21:36;;;;;;;;;2.00;2.00;;;;;27.20;42.26;101631.44;5066607;28;45262;-58
2021/06/11 09:24:24;;;;;;;;;3.67;3.67;;;;;27.21;43.10;101621.63;5061280;28;45480;-57
2021/06/11 09:27:00;;;;;;;;;3.00;3.00;;;;;27.21;42.97;101624.28;5060801;28;47215;-57
2021/06/11 09:29:33;;;;;;;;;3.00;3.00;;;;;27.21;42.58;101622.50;5060866;28;45393;-57
2021/06/11 09:32:28;;;;;;;;;4.33;4.00;;;;;27.21;43.02;101626.94;5060416;28;45450;-57
2021/06/11 09:35:03;;;;;;;;;4.33;4.00;;;;;27.22;42.52;101612.69;5061681;28;45230;-58
2021/06/11 09:37:31;;;;;;;;;3.00;3.00;;;;;27.23;42.49;101609.91;5071785;27;46640;-57
2021/06/11 09:40:06;;;;;;;;;3.33;3.33;;;;;27.23;42.58;101612.56;5068876;28;45290;-57
2021/06/11 09:42:34;;;;;;;;;5.00;3.33;;;;;27.24;42.51;101608.97;5084544;27;45176;-58
2021/06/11 09:45:05;;;;;;;;;3.00;3.00;;;;;27.26;42.32;101613.34;5084871;27;45447;-58
2021/06/11 09:47:34;;;;;;;;;4.00;4.00;;;;;27.24;42.88;101603.63;5083880;28;46125;-58
2021/06/11 09:50:14;;;;;;;;;3.00;3.00;;;;;27.27;42.49;101609.75;5064249;28;45695;-58
2021/06/11 09:52:58;;;;;;;;;2.00;2.00;;;;;27.26;42.91;101606.22;5077242;28;45418;-59
2021/06/11 09:55:25;;;;;;;;;2.00;2.00;;;;;27.28;42.40;101600.81;5084184;27;45212;-59
2021/06/11 09:58:22;;;;;;;;;6.00;3.00;;;;;27.29;42.77;101602.53;5082688;28;45579;-59
2021/06/11 10:00:49;;;;;;;;;3.00;3.00;;;;;27.29;42.50;101603.41;5082766;28;45452;-59
2021/06/11 10:03:17;;;;;;;;;3.33;3.00;;;;;27.29;42.42;101600.72;5062375;28;45291;-58
2021/06/11 10:05:43;;;;;;;;;2.67;2.00;;;;;27.29;42.23;101598.06;5073182;28;45464;-59
2021/06/11 10:08:10;;;;;;;;;4.67;3.33;;;;;27.30;42.91;101594.41;5068760;28;47105;-59
2021/06/11 10:10:36;;;;;;;;;3.00;3.00;;;;;27.31;42.89;101595.28;5069812;27;45273;-58
2021/06/11 10:13:02;;;;;;;;;2.33;2.00;;;;;27.31;42.46;101596.13;5063807;28;45220;-59
2021/06/11 10:15:30;;;;;;;;;2.33;2.33;;;;;27.31;42.96;101601.47;5064001;28;45394;-59
2021/06/11 10:17:56;;;;;;;;;2.00;2.00;;;;;27.33;42.72;101590.72;5062263;28;45441;-58
2021/06/11 10:20:21;;;;;;;;;3.67;3.67;;;;;27.32;42.27;101597.84;5071297;28;65982;-58
2021/06/11 10:22:47;;;;;;;;;4.00;4.00;;;;;27.34;42.52;101597.78;5049284;28;45279;-59
2021/06/11 10:25:13;;;;;;;;;3.00;3.00;;;;;27.34;42.82;101611.09;5063316;28;45294;-58
2021/06/11 10:27:42;;;;;;;;;7.33;5.00;;;;;27.35;42.71;101610.16;5070285;27;45438;-59
2021/06/11 10:30:09;;;;;;;;;2.67;2.67;;;;;27.35;42.78;101604.84;5083356;28;45249;-58
2021/06/11 10:32:40;;;;;;;;;4.00;4.00;;;;;27.36;42.77;101593.22;5083367;27;45324;-58
2021/06/11 10:35:07;;;;;;;;;2.67;2.67;;;;;27.36;42.81;101602.06;5079786;27;45424;-58
2021/06/11 10:37:42;;;;;;;;;5.00;4.33;;;;;27.37;42.62;101589.63;5065582;28;45329;-58
2021/06/11 10:40:30;;;;;;;;;3.67;3.00;;;;;27.37;42.84;101594.94;5079550;28;45624;-59
2021/06/11 10:43:23;;;;;;;;;3.33;3.33;;;;;27.38;42.22;101593.97;5069617;27;45270;-58
2021/06/11 10:45:49;;;;;;;;;5.00;4.00;;;;;27.37;42.48;101585.13;5063361;28;45326;-58
2021/06/11 10:48:16;;;;;;;;;5.00;5.00;;;;;27.37;42.67;101593.13;5062850;28;45491;-50
2021/06/11 10:50:42;;;;;;;;;6.00;6.00;;;;;27.39;43.50;101580.56;5062909;28;45328;-53
2021/06/11 10:53:11;;;;;;;;;8.33;6.67;;;;;27.39;42.93;101585.91;5062982;28;45309;-52
2021/06/11 10:55:49;;;;;;;;;12.33;11.33;;;;;27.41;43.63;101587.63;5063274;28;45362;-53
2021/06/11 10:58:18;;;;;;;;;11.00;11.00;;;;;27.42;43.27;101582.19;5061190;28;45400;-54
2021/06/11 11:00:44;;;;;;;;;10.67;9.33;;;;;27.43;43.76;101589.22;5060940;28;45286;-54
2021/06/11 11:03:30;;;;;;;;;6.00;6.00;;;;;27.45;44.75;101583.81;5062613;28;45417;-53
2021/06/11 11:05:56;;;;;;;;;5.67;5.00;;;;;27.47;43.97;101579.25;5063157;28;45247;-52
2021/06/11 11:08:22;;;;;;;;;8.00;8.00;;;;;27.48;44.79;101575.66;5062645;28;45935;-54
2021/06/11 11:10:54;;;;;;;;;7.00;5.00;;;;;27.49;43.90;101582.69;5063183;28;45892;-57
2021/06/11 11:13:19;;;;;;;;;6.00;6.00;;;;;27.51;44.38;101573.69;5076817;28;45389;-53
2021/06/11 11:15:48;;;;;;;;;7.00;7.00;;;;;27.53;44.11;101568.25;5068639;27;45294;-58
2021/06/11 11:18:22;;;;;;;;;6.00;5.00;;;;;27.56;44.13;101567.19;5073601;28;47021;-57
2021/06/11 11:20:48;;;;;;;;;5.33;5.33;;;;;27.57;44.06;101563.56;5080345;28;45376;-55
2021/06/11 11:23:16;;;;;;;;;7.00;6.67;;;;;27.58;44.90;101568.81;5068120;28;45344;-58
2021/06/11 11:25:42;;;;;;;;;5.00;4.33;;;;;27.60;44.09;101563.38;5064792;28;45669;-56
2021/06/11 11:28:10;;;;;;;;;5.00;5.00;;;;;27.62;44.45;101567.66;5072586;27;45496;-57